Time;durP1;ratioP1;P1;durP2;ratioP2;P2;SDS_P1;SDS_P2;PMS_P1;PMS_P2;Temp;Humidity;BMP_temperature;BMP_pressure;BME280_temperature;BME280_humidity;BME280_pressure;Samples;Min_cycle;Max_cycle;Signal;HPM_P1;HPM_P2
2022/08/18 00:00:41;;;;;;;17.38;9.10;;;18.90;99.90;;;;;;5074211;28;20407;-69
2022/08/18 00:03:07;;;;;;;13.23;7.45;;;18.80;99.90;;;;;;5074269;28;20022;-70
2022/08/18 00:05:33;;;;;;;13.77;8.57;;;18.80;99.90;;;;;;5073883;28;20020;-71
2022/08/18 00:08:00;;;;;;;13.68;8.50;;;18.80;99.90;;;;;;5073497;28;20025;-70
2022/08/18 00:10:26;;;;;;;16.85;8.45;;;18.80;99.90;;;;;;5073963;28;20020;-70
2022/08/18 00:12:52;;;;;;;13.95;8.00;;;18.80;99.90;;;;;;5073641;28;20066;-70
2022/08/18 00:15:18;;;;;;;13.02;7.38;;;18.80;99.90;;;;;;5073905;28;20020;-70
2022/08/18 00:17:44;;;;;;;14.25;7.68;;;18.80;99.90;;;;;;5072711;28;20020;-69
2022/08/18 00:20:14;;;;;;;13.15;8.52;;;18.80;99.90;;;;;;5073539;28;20461;-73
2022/08/18 00:22:39;;;;;;;12.60;7.60;;;18.80;99.90;;;;;;5073642;28;20025;-70
2022/08/18 00:25:08;;;;;;;14.35;8.10;;;18.90;99.90;;;;;;5073753;28;20024;-71
2022/08/18 00:27:36;;;;;;;15.15;8.00;;;18.90;99.90;;;;;;5073696;28;20013;-71
2022/08/18 00:30:07;;;;;;;14.50;7.82;;;18.90;99.90;;;;;;5073622;28;20450;-72
2022/08/18 00:32:35;;;;;;;15.55;8.55;;;18.90;99.90;;;;;;5073322;28;20043;-69
2022/08/18 00:35:20;;;;;;;14.45;8.10;;;19.00;99.90;;;;;;5073234;28;20028;-69
2022/08/18 00:37:47;;;;;;;12.82;7.85;;;19.10;99.90;;;;;;5073405;28;20127;-71
2022/08/18 00:40:17;;;;;;;14.70;7.97;;;19.10;99.90;;;;;;5073716;28;20020;-69
2022/08/18 00:42:52;;;;;;;12.80;8.40;;;19.20;99.90;;;;;;5073337;28;20028;-70
2022/08/18 00:45:24;;;;;;;13.45;7.82;;;19.20;99.90;;;;;;5073232;28;20016;-70
2022/08/18 00:47:50;;;;;;;12.97;7.20;;;19.20;99.90;;;;;;5073649;28;20023;-72
2022/08/18 00:50:26;;;;;;;12.52;7.18;;;19.20;99.90;;;;;;5073039;28;20268;-69
2022/08/18 00:52:57;;;;;;;13.18;7.63;;;19.20;99.90;;;;;;5073291;28;20572;-69
2022/08/18 00:55:23;;;;;;;13.10;7.78;;;19.10;99.90;;;;;;5073214;28;20051;-69
2022/08/18 00:57:53;;;;;;;14.05;8.15;;;19.10;99.90;;;;;;5073038;28;20094;-70
2022/08/18 01:00:21;;;;;;;12.98;7.85;;;19.00;99.90;;;;;;5069649;28;20013;-72
2022/08/18 01:02:53;;;;;;;13.05;8.38;;;18.90;99.90;;;;;;5052894;28;20025;-71
2022/08/18 01:05:33;;;;;;;13.40;7.78;;;18.90;99.90;;;;;;5052633;28;20127;-70
2022/08/18 01:07:59;;;;;;;14.27;8.13;;;18.90;99.90;;;;;;5051655;28;20367;-70
2022/08/18 01:10:25;;;;;;;14.95;8.63;;;18.80;99.90;;;;;;5051090;28;20412;-69
2022/08/18 01:12:57;;;;;;;16.58;8.77;;;18.70;99.90;;;;;;5052841;28;20025;-71
2022/08/18 01:15:24;;;;;;;15.45;8.55;;;18.60;99.90;;;;;;5052562;28;20312;-68
2022/08/18 01:23:38;;;;;;;17.23;9.43;;;18.50;99.90;;;;;;5032742;28;20076;-73
2022/08/18 01:26:05;;;;;;;18.52;8.70;;;18.40;99.90;;;;;;5052756;28;20056;-70
2022/08/18 01:28:33;;;;;;;15.93;8.38;;;18.40;99.90;;;;;;5052882;28;20028;-69
2022/08/18 01:31:00;;;;;;;15.85;8.82;;;18.40;99.90;;;;;;5052169;28;20033;-69
2022/08/18 01:33:32;;;;;;;14.45;9.10;;;18.30;99.90;;;;;;5054469;28;20458;-71
2022/08/18 01:36:01;;;;;;;20.80;9.82;;;18.30;99.90;;;;;;5057059;28;20024;-69
2022/08/18 01:38:27;;;;;;;16.55;9.32;;;18.30;99.90;;;;;;5056593;28;20083;-71
2022/08/18 01:40:53;;;;;;;16.92;9.20;;;18.30;99.90;;;;;;5056830;28;20025;-71
2022/08/18 01:43:19;;;;;;;26.27;9.07;;;18.20;99.90;;;;;;5055465;28;20021;-69
2022/08/18 01:45:46;;;;;;;16.77;9.45;;;18.20;99.90;;;;;;5056191;28;20075;-72
2022/08/18 01:48:12;;;;;;;20.02;9.60;;;18.20;99.90;;;;;;5056281;28;20025;-70
2022/08/18 01:50:40;;;;;;;19.00;10.30;;;18.20;99.90;;;;;;5056461;28;20368;-70
2022/08/18 01:53:07;;;;;;;19.05;10.35;;;18.20;99.90;;;;;;5056528;28;20021;-70
2022/08/18 01:55:37;;;;;;;18.60;10.10;;;18.20;99.90;;;;;;5056057;28;20033;-70
2022/08/18 01:58:04;;;;;;;20.67;9.10;;;18.20;99.90;;;;;;5056169;28;20131;-70
2022/08/18 02:00:31;;;;;;;23.52;9.88;;;18.20;99.90;;;;;;5060727;28;20017;-72
2022/08/18 02:02:58;;;;;;;21.42;9.90;;;18.20;99.90;;;;;;5076252;28;20016;-70
2022/08/18 02:05:32;;;;;;;20.48;9.63;;;18.20;99.90;;;;;;5076097;28;20070;-71
2022/08/18 02:07:58;;;;;;;19.35;10.00;;;18.20;99.90;;;;;;5076104;28;20028;-70
2022/08/18 02:10:24;;;;;;;17.40;9.05;;;18.20;99.90;;;;;;5076278;28;20107;-70
2022/08/18 02:12:49;;;;;;;20.38;10.23;;;18.20;99.90;;;;;;5076252;28;20149;-70
2022/08/18 02:15:15;;;;;;;22.58;9.95;;;18.20;99.90;;;;;;5075828;28;20017;-71
2022/08/18 02:17:43;;;;;;;20.98;9.63;;;18.20;99.90;;;;;;5075567;28;20023;-70
2022/08/18 02:20:12;;;;;;;23.92;10.25;;;18.10;99.90;;;;;;5075983;28;20060;-70
2022/08/18 02:22:38;;;;;;;22.63;10.57;;;18.10;99.90;;;;;;5075870;28;20469;-70
2022/08/18 02:25:04;;;;;;;19.30;9.57;;;18.10;99.90;;;;;;5075777;28;20078;-69
2022/08/18 02:27:31;;;;;;;15.00;9.60;;;18.00;99.90;;;;;;5075268;28;20054;-70
2022/08/18 02:29:59;;;;;;;18.27;8.68;;;18.00;99.90;;;;;;5075596;28;20120;-71
2022/08/18 02:32:24;;;;;;;16.50;8.90;;;18.00;99.90;;;;;;5075546;28;20064;-73
2022/08/18 02:34:50;;;;;;;17.50;9.27;;;17.90;99.90;;;;;;5075304;28;20466;-70
2022/08/18 02:37:15;;;;;;;18.77;10.20;;;17.90;99.90;;;;;;5075646;28;20458;-73
2022/08/18 02:39:41;;;;;;;20.90;10.45;;;17.90;99.90;;;;;;5075463;28;20047;-69
2022/08/18 02:42:07;;;;;;;19.70;10.05;;;17.90;99.90;;;;;;5075226;28;20416;-71
2022/08/18 02:44:33;;;;;;;21.38;11.07;;;17.90;99.90;;;;;;5075152;28;20056;-71
2022/08/18 02:46:59;;;;;;;21.08;10.80;;;17.90;99.90;;;;;;5075362;28;20079;-71
2022/08/18 02:49:25;;;;;;;22.63;11.63;;;17.90;99.90;;;;;;5075367;28;20502;-71
2022/08/18 02:51:52;;;;;;;23.02;12.30;;;17.90;99.90;;;;;;5075266;28;20064;-70
2022/08/18 02:54:19;;;;;;;20.92;11.82;;;18.00;99.90;;;;;;5075230;28;20447;-72
2022/08/18 02:56:45;;;;;;;20.48;12.13;;;18.10;99.90;;;;;;5074448;28;20013;-69
2022/08/18 02:59:18;;;;;;;22.55;12.55;;;18.20;99.90;;;;;;5075073;28;20370;-70
2022/08/18 03:01:46;;;;;;;21.92;11.52;;;18.20;99.90;;;;;;5075099;28;20107;-72
2022/08/18 03:04:15;;;;;;;22.48;11.75;;;18.30;99.90;;;;;;5074758;28;20488;-70
2022/08/18 03:06:43;;;;;;;23.02;12.23;;;18.40;99.90;;;;;;5074818;28;20040;-71
2022/08/18 03:09:10;;;;;;;21.15;12.05;;;18.40;99.90;;;;;;5074477;28;20446;-69
2022/08/18 03:11:36;;;;;;;21.85;12.27;;;18.40;99.90;;;;;;5074938;28;20068;-71
2022/08/18 03:14:04;;;;;;;21.23;12.02;;;18.50;99.90;;;;;;5074594;28;20024;-70
2022/08/18 03:16:31;;;;;;;22.48;12.45;;;18.50;99.90;;;;;;5074995;28;20056;-71
2022/08/18 03:18:58;;;;;;;22.88;13.20;;;18.60;99.90;;;;;;5074811;28;20040;-71
2022/08/18 03:21:26;;;;;;;21.13;11.88;;;18.60;99.90;;;;;;5074547;28;20020;-70
2022/08/18 03:23:54;;;;;;;22.52;12.85;;;18.70;99.90;;;;;;5073305;28;20108;-69
2022/08/18 03:26:21;;;;;;;23.80;11.88;;;18.70;99.90;;;;;;5073118;28;20025;-69
2022/08/18 03:28:49;;;;;;;20.17;12.73;;;18.80;99.90;;;;;;5073333;28;20484;-70
2022/08/18 03:31:17;;;;;;;20.02;13.15;;;18.80;99.90;;;;;;5072788;28;20052;-70
2022/08/18 03:33:44;;;;;;;22.48;12.88;;;18.90;99.90;;;;;;5074433;28;20454;-70
2022/08/18 03:36:16;;;;;;;21.83;12.82;;;18.90;99.90;;;;;;5074229;28;20009;-68
2022/08/18 03:38:44;;;;;;;21.90;12.75;;;19.00;99.90;;;;;;5071646;28;20029;-72
2022/08/18 03:41:12;;;;;;;17.95;12.18;;;19.00;99.90;;;;;;5073950;28;20370;-69
2022/08/18 03:43:37;;;;;;;20.17;12.50;;;19.10;99.90;;;;;;5073949;28;20150;-70
2022/08/18 03:46:05;;;;;;;23.67;12.48;;;19.10;99.90;;;;;;5073877;28;20099;-71
2022/08/18 03:48:34;;;;;;;21.23;11.57;;;19.20;99.90;;;;;;5072603;28;20012;-69
2022/08/18 03:51:12;;;;;;;25.60;12.05;;;19.20;99.90;;;;;;5073403;28;20044;-72
2022/08/18 03:53:38;;;;;;;19.08;11.15;;;19.20;99.90;;;;;;5073893;28;20020;-73
2022/08/18 03:56:14;;;;;;;13.77;6.60;;;19.20;99.90;;;;;;5073226;28;20032;-74
2022/08/18 03:58:51;;;;;;;25.70;12.15;;;19.10;99.90;;;;;;5071149;28;20101;-71
2022/08/18 04:01:19;;;;;;;19.52;10.80;;;19.00;99.90;;;;;;5073348;28;20036;-71
2022/08/18 04:03:48;;;;;;;19.20;10.85;;;18.90;99.90;;;;;;5073587;28;20021;-69
2022/08/18 04:06:20;;;;;;;21.85;12.05;;;18.90;99.90;;;;;;5073780;28;20024;-70
2022/08/18 04:08:45;;;;;;;21.75;12.48;;;18.80;99.90;;;;;;5071800;28;20073;-70
2022/08/18 04:11:13;;;;;;;20.08;10.82;;;18.80;99.90;;;;;;5073565;28;20104;-71
2022/08/18 04:13:39;;;;;;;23.77;11.15;;;18.80;99.90;;;;;;5073168;28;20017;-72
2022/08/18 04:16:04;;;;;;;19.05;10.48;;;18.80;99.90;;;;;;5073418;28;20358;-70
2022/08/18 04:18:30;;;;;;;19.88;11.30;;;18.80;99.90;;;;;;5072945;28;20016;-73
2022/08/18 04:20:59;;;;;;;20.55;10.77;;;18.80;99.90;;;;;;5073188;28;20039;-74
2022/08/18 04:23:25;;;;;;;22.42;11.07;;;18.80;99.90;;;;;;5073283;28;20066;-70
2022/08/18 04:25:58;;;;;;;19.70;11.18;;;18.80;99.90;;;;;;5072846;28;20024;-71
2022/08/18 04:28:25;;;;;;;22.88;11.27;;;18.90;99.90;;;;;;5070883;28;20017;-69
2022/08/18 04:30:51;;;;;;;24.17;11.52;;;18.90;99.90;;;;;;5072874;28;20458;-70
2022/08/18 04:33:16;;;;;;;23.65;11.73;;;18.90;99.90;;;;;;5073043;28;20020;-73
2022/08/18 04:35:42;;;;;;;23.73;13.45;;;18.90;99.90;;;;;;5071761;28;20112;-70
2022/08/18 04:38:09;;;;;;;24.75;13.13;;;18.80;99.90;;;;;;5073043;28;20450;-70
2022/08/18 04:40:36;;;;;;;20.73;13.18;;;18.80;99.90;;;;;;5072789;28;20810;-71
2022/08/18 04:43:01;;;;;;;24.65;13.23;;;18.90;99.90;;;;;;5069478;28;20055;-71
2022/08/18 04:45:28;;;;;;;24.55;13.75;;;18.90;99.90;;;;;;5072422;28;20048;-72
2022/08/18 04:47:54;;;;;;;24.85;14.23;;;18.90;99.90;;;;;;5072697;28;20052;-71
2022/08/18 04:50:20;;;;;;;26.38;15.02;;;18.90;99.90;;;;;;5072710;28;20020;-71
2022/08/18 04:55:30;;;;;;;25.15;15.00;;;18.90;99.90;;;;;;5071024;28;20469;-72
2022/08/18 04:57:58;;;;;;;24.35;15.38;;;18.90;99.90;;;;;;5071043;28;20020;-69
2022/08/18 05:00:23;;;;;;;29.13;15.85;;;19.00;99.90;;;;;;5072619;28;20031;-71
2022/08/18 05:02:49;;;;;;;25.27;14.93;;;19.00;99.90;;;;;;5073536;28;20024;-71
2022/08/18 05:05:14;;;;;;;24.63;15.77;;;18.90;99.90;;;;;;5071281;28;20023;-71
2022/08/18 05:07:45;;;;;;;26.80;15.48;;;19.00;99.90;;;;;;5071960;28;20526;-73
2022/08/18 05:10:12;;;;;;;26.02;15.10;;;19.00;99.90;;;;;;5072837;28;20028;-71
2022/08/18 05:12:41;;;;;;;27.17;16.23;;;19.00;99.90;;;;;;5073024;28;20040;-70
2022/08/18 05:15:07;;;;;;;24.60;15.82;;;19.00;99.90;;;;;;5072808;28;20370;-73
2022/08/18 05:17:38;;;;;;;24.17;14.85;;;19.10;99.90;;;;;;5073592;28;20469;-70
2022/08/18 05:20:07;;;;;;;22.98;13.23;;;19.10;99.90;;;;;;5073170;28;20020;-71
2022/08/18 05:22:38;;;;;;;24.23;13.95;;;19.10;99.90;;;;;;5072989;28;20350;-71
2022/08/18 05:25:04;;;;;;;20.85;14.27;;;19.10;99.90;;;;;;5073026;28;20035;-73
2022/08/18 05:27:32;;;;;;;19.83;12.93;;;19.10;99.90;;;;;;5073118;28;20032;-71
2022/08/18 05:29:57;;;;;;;22.35;12.30;;;19.10;99.90;;;;;;5073592;28;20024;-71
2022/08/18 05:32:23;;;;;;;21.38;12.15;;;19.20;99.90;;;;;;5073122;28;20055;-71
2022/08/18 05:34:49;;;;;;;19.35;11.15;;;19.20;99.90;;;;;;5072962;28;20099;-71
2022/08/18 05:37:41;;;;;;;21.08;11.32;;;19.20;99.90;;;;;;5073056;28;20021;-71
2022/08/18 05:40:07;;;;;;;22.48;11.18;;;19.20;99.90;;;;;;5072848;28;20027;-70
2022/08/18 05:42:38;;;;;;;20.50;11.93;;;19.20;99.90;;;;;;5071484;28;20037;-71
2022/08/18 05:45:11;;;;;;;23.58;12.57;;;19.20;99.90;;;;;;5072889;28;20183;-70
2022/08/18 05:47:37;;;;;;;19.10;11.23;;;19.30;99.90;;;;;;5073052;28;20032;-70
2022/08/18 05:50:10;;;;;;;20.75;11.45;;;19.30;99.90;;;;;;5072801;28;20024;-70
2022/08/18 05:52:57;;;;;;;19.27;11.38;;;19.30;99.90;;;;;;5072630;28;20466;-74
2022/08/18 05:58:30;;;;;;;18.90;10.50;;;19.40;99.90;;;;;;5072633;28;20101;-73
2022/08/18 06:01:01;;;;;;;19.63;10.77;;;19.50;99.90;;;;;;5073031;28;20035;-70
2022/08/18 06:03:47;;;;;;;16.92;10.02;;;19.60;99.90;;;;;;5072459;28;20017;-75
2022/08/18 06:06:21;;;;;;;21.98;11.05;;;19.60;99.90;;;;;;5072680;28;20052;-75
2022/08/18 06:08:54;;;;;;;14.38;8.70;;;19.60;99.90;;;;;;5071460;28;20024;-72
2022/08/18 06:11:20;;;;;;;15.85;8.07;;;19.70;99.90;;;;;;5072244;28;20347;-72
2022/08/18 06:13:45;;;;;;;13.32;7.80;;;19.70;99.90;;;;;;5072479;28;20070;-74
2022/08/18 06:16:32;;;;;;;12.95;7.80;;;19.80;99.90;;;;;;5072665;28;20082;-72
2022/08/18 06:19:18;;;;;;;11.23;7.70;;;19.90;99.90;;;;;;5073229;28;20020;-70
2022/08/18 06:22:01;;;;;;;15.88;8.27;;;19.90;99.90;;;;;;5076036;28;20499;-73
2022/08/18 06:24:54;;;;;;;13.50;7.93;;;20.00;99.90;;;;;;5075927;28;20020;-70
2022/08/18 06:27:29;;;;;;;10.57;7.05;;;20.00;99.90;;;;;;5076278;28;20025;-71
2022/08/18 06:30:10;;;;;;;12.18;7.55;;;20.10;99.90;;;;;;5076198;28;20047;-72
2022/08/18 06:33:00;;;;;;;11.60;7.13;;;20.30;99.90;;;;;;5075361;28;20036;-70
2022/08/18 06:35:35;;;;;;;10.10;6.80;;;20.50;99.90;;;;;;5075657;28;20063;-70
2022/08/18 06:41:09;;;;;;;12.43;6.30;;;20.90;99.90;;;;;;5075957;28;20428;-73
2022/08/18 06:43:40;;;;;;;9.70;5.50;;;21.20;99.90;;;;;;5075868;28;20024;-73
2022/08/18 06:46:16;;;;;;;9.38;5.38;;;21.40;99.90;;;;;;5075729;28;20021;-71
2022/08/18 06:48:58;;;;;;;8.73;4.82;;;21.60;99.90;;;;;;5075680;28;20021;-73
2022/08/18 06:51:27;;;;;;;10.25;5.07;;;21.70;99.90;;;;;;5075607;28;20040;-74
2022/08/18 06:53:55;;;;;;;6.43;4.10;;;22.10;99.90;;;;;;5075733;28;20081;-71
2022/08/18 06:56:22;;;;;;;6.03;2.97;;;22.60;99.90;;;;;;5075135;28;20020;-71
2022/08/18 06:58:49;;;;;;;3.78;2.53;;;22.80;99.90;;;;;;5075307;28;20052;-71
2022/08/18 07:01:16;;;;;;;5.68;2.75;;;22.80;99.90;;;;;;5074252;28;20100;-70
2022/08/18 07:03:48;;;;;;;4.78;2.28;;;22.70;99.90;;;;;;5075822;28;20513;-71
2022/08/18 07:06:20;;;;;;;7.60;2.67;;;22.60;99.90;;;;;;5075501;28;20098;-73
2022/08/18 07:08:48;;;;;;;3.67;2.22;;;22.60;99.90;;;;;;5075119;28;20166;-69
2022/08/18 07:11:27;;;;;;;2.67;2.40;;;23.00;99.90;;;;;;5075164;28;20381;-69
2022/08/18 07:13:57;;;;;;;6.18;2.72;;;23.80;99.90;;;;;;5056527;28;20088;-73
2022/08/18 07:16:26;;;;;;;3.25;2.30;;;24.80;99.90;;;;;;5075341;28;20036;-71
2022/08/18 07:18:52;;;;;;;4.72;2.30;;;25.50;99.90;;;;;;5075423;28;20025;-72
2022/08/18 07:21:30;;;;;;;5.90;2.22;;;26.20;99.90;;;;;;5074898;28;20446;-71
2022/08/18 07:24:05;;;;;;;3.58;2.30;;;26.50;99.90;;;;;;5064628;28;20017;-70
2022/08/18 07:27:00;;;;;;;4.53;2.75;;;26.50;99.90;;;;;;5066365;28;20031;-72
2022/08/18 07:29:31;;;;;;;3.78;2.33;;;26.30;99.90;;;;;;5074842;28;20024;-70
2022/08/18 07:32:02;;;;;;;3.93;2.23;;;26.20;99.90;;;;;;5073510;28;20129;-71
2022/08/18 07:34:36;;;;;;;2.35;2.13;;;26.20;99.90;;;;;;5074888;28;20024;-70
2022/08/18 07:37:39;;;;;;;3.22;2.53;;;26.30;99.90;;;;;;5075011;28;20039;-69
2022/08/18 07:40:28;;;;;;;3.83;2.25;;;26.40;99.90;;;;;;5067945;28;20040;-72
2022/08/18 07:43:10;;;;;;;3.17;2.20;;;26.50;99.90;;;;;;5074583;28;20028;-71
2022/08/18 07:45:41;;;;;;;;;;;26.70;99.90;;;;;;5075072;28;20024;-69
2022/08/18 07:48:12;;;;;;;2.10;1.88;;;26.50;99.90;;;;;;5075014;28;19946;-69
2022/08/18 07:51:08;;;;;;;2.80;1.92;;;26.50;99.90;;;;;;5074391;28;20142;-70
2022/08/18 07:53:46;;;;;;;2.60;1.98;;;26.60;99.90;;;;;;5074390;28;20024;-70
2022/08/18 07:56:31;;;;;;;2.88;2.03;;;26.80;99.90;;;;;;5073789;28;20021;-70
2022/08/18 07:59:13;;;;;;;3.97;2.58;;;26.80;99.90;;;;;;5074216;28;20482;-70
2022/08/18 08:02:06;;;;;;;2.60;1.88;;;27.00;99.90;;;;;;5073707;28;20531;-68
2022/08/18 08:04:50;;;;;;;1.80;1.63;;;27.40;99.90;;;;;;5073563;28;20050;-72
2022/08/18 08:07:23;;;;;;;2.88;1.70;;;27.70;99.90;;;;;;5069106;28;20046;-69
2022/08/18 08:10:11;;;;;;;2.17;1.52;;;27.90;99.90;;;;;;5071120;28;20035;-72
2022/08/18 08:13:02;;;;;;;3.05;2.03;;;28.20;99.90;;;;;;5073985;28;20466;-72
2022/08/18 08:15:59;;;;;;;2.88;1.80;;;28.70;99.90;;;;;;5073786;28;20099;-70
2022/08/18 08:18:38;;;;;;;3.30;1.40;;;29.20;99.90;;;;;;5073368;28;20544;-70
2022/08/18 08:21:18;;;;;;;1.55;1.45;;;30.00;99.90;;;;;;5073989;28;20063;-71
2022/08/18 08:23:53;;;;;;;2.22;1.30;;;31.50;98.70;;;;;;5073391;28;20020;-70
2022/08/18 08:26:47;;;;;;;3.28;1.20;;;31.70;97.90;;;;;;5073987;28;20020;-70
2022/08/18 08:29:35;;;;;;;2.38;1.50;;;31.70;96.20;;;;;;5073552;28;20419;-69
2022/08/18 08:32:10;;;;;;;2.58;1.52;;;31.10;96.30;;;;;;5072157;28;20351;-69
2022/08/18 08:34:50;;;;;;;4.70;1.77;;;30.50;97.00;;;;;;5059308;28;20109;-72
2022/08/18 08:37:39;;;;;;;1.80;1.70;;;29.90;97.80;;;;;;5071006;28;20107;-70
2022/08/18 08:40:18;;;;;;;3.88;1.95;;;29.40;98.70;;;;;;5073173;28;20031;-71
2022/08/18 08:42:54;;;;;;;3.15;2.00;;;29.00;99.00;;;;;;5073288;28;20071;-71
2022/08/18 08:45:22;;;;;;;3.63;1.77;;;28.60;99.60;;;;;;5073597;28;20361;-71
2022/08/18 08:48:00;;;;;;;2.60;1.88;;;28.30;99.60;;;;;;5073268;28;20052;-70
2022/08/18 08:50:33;;;;;;;2.83;1.73;;;28.30;99.90;;;;;;5056373;28;20063;-70
2022/08/18 08:53:12;;;;;;;2.83;1.83;;;28.90;99.90;;;;;;5072321;28;20120;-69
2022/08/18 08:55:45;;;;;;;5.32;2.25;;;29.40;99.20;;;;;;5073156;28;20021;-71
2022/08/18 08:58:36;;;;;;;5.05;1.88;;;29.30;97.80;;;;;;5073082;28;20466;-69
2022/08/18 09:01:02;;;;;;;2.92;1.80;;;28.80;98.30;;;;;;5073260;28;20029;-71
2022/08/18 09:03:55;;;;;;;4.95;1.90;;;28.40;98.90;;;;;;5072889;28;20100;-69
2022/08/18 09:06:41;;;;;;;2.28;1.77;;;28.20;99.10;;;;;;5071777;28;20029;-68
2022/08/18 09:09:15;;;;;;;4.75;1.75;;;28.50;99.60;;;;;;5051311;28;20032;-70
2022/08/18 09:12:24;;;;;;;4.10;1.73;;;29.80;99.50;;;;;;5072376;28;20457;-70
2022/08/18 09:15:12;;;;;;;4.00;1.92;;;31.30;96.60;;;;;;5070712;28;20035;-69
2022/08/18 09:17:37;;;;;;;3.75;1.85;;;31.30;96.60;;;;;;5069573;28;20427;-69
2022/08/18 09:20:24;;;;;;;5.20;2.30;;;31.40;96.30;;;;;;5071437;28;20119;-71
2022/08/18 09:23:04;;;;;;;4.45;2.25;;;31.50;96.30;;;;;;5071536;28;20028;-70
2022/08/18 09:25:36;;;;;;;5.63;2.13;;;32.00;95.10;;;;;;5071895;28;20069;-70
2022/08/18 09:28:28;;;;;;;4.43;1.90;;;33.20;93.50;;;;;;5069745;28;20024;-70
2022/08/18 09:31:04;;;;;;;5.03;1.95;;;34.20;92.30;;;;;;5071084;28;20032;-69
2022/08/18 09:33:44;;;;;;;4.88;1.98;;;34.80;91.70;;;;;;5070643;28;20017;-70
2022/08/18 09:36:29;;;;;;;4.50;1.92;;;35.90;90.30;;;;;;5068853;28;20012;-69
2022/08/18 09:42:06;;;;;;;4.88;2.58;;;36.60;87.50;;;;;;5072670;28;20035;-69
2022/08/18 09:44:50;;;;;;;6.57;2.50;;;36.80;85.00;;;;;;5071549;28;20113;-70
2022/08/18 09:47:24;;;;;;;4.88;2.38;;;36.30;85.40;;;;;;5068552;28;20028;-69
2022/08/18 09:49:56;;;;;;;2.80;1.70;;;35.80;85.60;;;;;;5070237;28;20031;-70
2022/08/18 09:52:22;;;;;;;3.60;1.70;;;35.70;85.10;;;;;;5069967;28;20039;-73
2022/08/18 09:55:00;;;;;;;3.22;1.75;;;35.60;82.50;;;;;;5073733;28;20036;-70
2022/08/18 09:57:36;;;;;;;2.42;1.30;;;35.30;83.30;;;;;;5075291;28;20016;-70
2022/08/18 10:00:02;;;;;;;5.32;1.70;;;35.50;82.40;;;;;;5076798;28;20071;-69
2022/08/18 10:02:27;;;;;;;3.08;1.85;;;35.70;82.20;;;;;;5075198;28;20454;-70
2022/08/18 10:05:15;;;;;;;6.15;1.65;;;36.30;80.60;;;;;;5076573;28;20020;-70
2022/08/18 10:08:13;;;;;;;3.33;1.60;;;37.10;78.70;;;;;;5076025;28;20044;-70
2022/08/18 10:10:46;;;;;;;5.47;1.90;;;37.50;78.50;;;;;;5075403;28;20016;-70
2022/08/18 10:13:35;;;;;;;4.30;1.90;;;37.40;77.60;;;;;;5076032;28;20323;-69
2022/08/18 10:16:09;;;;;;;4.35;1.80;;;37.40;76.20;;;;;;5075385;28;20020;-73
2022/08/18 10:18:57;;;;;;;2.38;1.70;;;37.60;77.70;;;;;;5075763;28;20028;-70
2022/08/18 10:21:27;;;;;;;4.10;1.70;;;38.40;76.40;;;;;;5075689;28;20066;-69
2022/08/18 10:24:05;;;;;;;3.08;2.00;;;39.30;72.00;;;;;;5075504;28;20028;-69
2022/08/18 10:26:31;;;;;;;5.22;2.50;;;40.00;71.00;;;;;;5074595;28;20111;-70
2022/08/18 10:28:58;;;;;;;3.22;1.90;;;40.70;70.50;;;;;;5074914;28;20103;-69
2022/08/18 10:31:25;;;;;;;2.97;1.88;;;41.10;68.40;;;;;;5074099;28;20498;-69
2022/08/18 10:34:09;;;;;;;6.13;2.20;;;41.00;68.70;;;;;;5073771;28;20028;-68
2022/08/18 10:36:44;;;;;;;5.43;2.50;;;41.00;67.50;;;;;;5074064;28;20024;-68
2022/08/18 10:39:23;;;;;;;5.93;2.40;;;40.20;69.10;;;;;;5074438;28;20021;-72
2022/08/18 10:42:02;;;;;;;8.50;3.55;;;39.20;70.30;;;;;;5073534;28;20024;-68
2022/08/18 10:44:30;;;;;;;11.88;3.15;;;38.00;74.40;;;;;;5073192;28;20016;-70
2022/08/18 10:46:59;;;;;;;7.55;2.67;;;36.90;75.50;;;;;;5074892;28;20025;-69
2022/08/18 10:49:27;;;;;;;5.28;2.40;;;35.70;77.10;;;;;;5074735;28;20026;-71
2022/08/18 10:52:06;;;;;;;6.82;2.15;;;34.70;79.70;;;;;;5055403;28;20044;-68
2022/08/18 10:54:53;;;;;;;2.63;1.80;;;33.70;83.40;;;;;;5055681;28;20134;-68
2022/08/18 10:57:31;;;;;;;9.70;2.03;;;32.60;84.80;;;;;;5068441;28;20017;-72
2022/08/18 11:00:06;;;;;;;4.10;2.10;;;31.50;86.30;;;;;;5055124;28;20045;-72
2022/08/18 11:03:14;;;;;;;3.75;1.85;;;30.70;88.30;;;;;;5055425;28;20035;-69
2022/08/18 11:05:41;;;;;;;4.45;2.03;;;30.00;89.40;;;;;;5053807;28;20029;-69
2022/08/18 11:08:16;;;;;;;4.43;2.10;;;29.40;90.70;;;;;;5053858;28;20477;-69
2022/08/18 11:10:47;;;;;;;4.70;2.33;;;29.10;91.30;;;;;;5055211;28;20603;-69
2022/08/18 11:13:12;;;;;;;7.53;3.03;;;28.90;91.90;;;;;;5055352;28;20079;-69
2022/08/18 11:15:59;;;;;;;6.00;2.40;;;28.90;92.60;;;;;;5055236;28;20024;-72
2022/08/18 11:18:32;;;;;;;5.70;2.42;;;29.10;92.60;;;;;;5053776;28;20066;-71
2022/08/18 11:21:34;;;;;;;5.63;2.33;;;29.20;92.80;;;;;;5052666;28;20029;-69
2022/08/18 11:24:09;;;;;;;4.60;2.22;;;29.40;92.50;;;;;;5053003;28;20104;-71
2022/08/18 11:26:47;;;;;;;2.65;2.10;;;29.60;91.80;;;;;;5068208;28;20396;-68
2022/08/18 11:29:23;;;;;;;3.78;2.20;;;30.10;92.80;;;;;;5073896;28;20074;-68
2022/08/18 11:31:56;;;;;;;4.05;2.33;;;31.20;90.00;;;;;;5073756;28;20101;-68
2022/08/18 11:34:35;;;;;;;6.03;2.70;;;31.60;90.10;;;;;;5075135;28;20066;-68
2022/08/18 11:37:25;;;;;;;4.32;2.28;;;32.20;87.90;;;;;;5075014;28;20024;-68
2022/08/18 11:39:53;;;;;;;12.18;3.05;;;33.20;86.80;;;;;;5067761;28;20097;-69
2022/08/18 11:42:30;;;;;;;3.88;2.08;;;34.30;85.00;;;;;;5074897;28;20028;-70
2022/08/18 11:45:08;;;;;;;6.15;1.70;;;35.50;83.50;;;;;;5074548;28;20029;-74
2022/08/18 11:47:37;;;;;;;2.53;1.73;;;36.70;78.60;;;;;;5071924;28;20019;-69
2022/08/18 11:50:11;;;;;;;4.28;1.48;;;37.70;75.00;;;;;;5062805;28;20025;-68
2022/08/18 11:52:51;;;;;;;5.70;2.08;;;38.30;73.30;;;;;;5066960;28;20043;-69
2022/08/18 11:55:28;;;;;;;3.53;1.80;;;38.50;71.40;;;;;;5074109;28;20024;-67
2022/08/18 11:57:56;;;;;;;5.22;1.90;;;38.60;72.50;;;;;;5053986;28;20528;-68
2022/08/18 12:00:56;;;;;;;3.42;1.60;;;38.90;71.00;;;;;;5054503;28;20028;-68
2022/08/18 12:03:30;;;;;;;5.05;2.20;;;38.90;70.70;;;;;;5054561;28;20037;-68
2022/08/18 12:06:18;;;;;;;4.55;2.15;;;38.60;71.60;;;;;;5071548;28;20025;-68
2022/08/18 12:09:11;;;;;;;3.05;2.05;;;38.30;72.20;;;;;;5074030;28;20028;-71
2022/08/18 12:11:55;;;;;;;4.47;1.80;;;38.40;71.60;;;;;;5073258;28;20039;-68
2022/08/18 12:14:24;;;;;;;3.92;1.85;;;38.70;70.40;;;;;;5073814;28;20025;-69
2022/08/18 12:16:50;;;;;;;4.22;1.90;;;39.10;70.80;;;;;;5074138;28;20028;-68
2022/08/18 12:19:16;;;;;;;5.30;2.08;;;38.90;69.70;;;;;;5073624;28;20024;-69
2022/08/18 12:21:44;;;;;;;5.70;2.05;;;38.20;71.20;;;;;;5073580;28;20023;-68
2022/08/18 12:24:19;;;;;;;6.30;2.22;;;37.40;72.10;;;;;;5073739;28;20025;-68
2022/08/18 12:26:45;;;;;;;2.28;1.58;;;36.50;74.40;;;;;;5073206;28;20024;-68
2022/08/18 12:29:11;;;;;;;4.18;2.40;;;35.50;74.80;;;;;;5073322;28;20039;-70
2022/08/18 12:31:37;;;;;;;2.13;1.70;;;34.60;76.50;;;;;;5073375;28;20466;-68
2022/08/18 12:34:03;;;;;;;3.47;1.77;;;33.80;77.80;;;;;;5072666;28;20113;-69
2022/08/18 12:36:29;;;;;;;8.75;2.15;;;32.90;78.10;;;;;;5070088;28;20428;-69
2022/08/18 12:38:56;;;;;;;3.60;2.10;;;32.20;80.80;;;;;;5072085;28;20024;-68
2022/08/18 12:41:22;;;;;;;6.55;2.08;;;31.80;82.60;;;;;;5072813;28;20098;-68
2022/08/18 12:43:47;;;;;;;4.72;2.20;;;31.40;83.60;;;;;;5073346;28;20024;-69
2022/08/18 12:46:13;;;;;;;5.35;2.15;;;31.00;85.10;;;;;;5072674;28;20028;-67
2022/08/18 12:48:38;;;;;;;4.18;2.50;;;30.60;86.60;;;;;;5073172;28;20024;-67
2022/08/18 12:51:05;;;;;;;8.10;2.88;;;30.30;86.90;;;;;;5071703;28;20032;-68
2022/08/18 12:53:31;;;;;;;7.68;2.60;;;30.00;88.20;;;;;;5073009;28;20044;-68
2022/08/18 12:55:56;;;;;;;5.57;2.20;;;29.80;89.30;;;;;;5071728;28;20069;-67
2022/08/18 12:58:22;;;;;;;5.72;2.58;;;29.80;90.10;;;;;;5069905;28;20056;-73
2022/08/18 13:00:47;;;;;;;4.75;2.80;;;30.00;90.10;;;;;;5072737;28;20025;-71
2022/08/18 13:03:13;;;;;;;5.35;2.28;;;30.20;90.00;;;;;;5072530;28;20024;-67
2022/08/18 13:05:39;;;;;;;7.60;2.30;;;30.30;89.20;;;;;;5072572;28;20085;-68
2022/08/18 13:08:12;;;;;;;3.83;2.25;;;30.10;89.70;;;;;;5072795;28;20032;-68
2022/08/18 13:10:38;;;;;;;4.53;2.50;;;29.90;90.20;;;;;;5072599;28;20070;-70
2022/08/18 13:13:04;;;;;;;4.78;2.47;;;29.80;90.40;;;;;;5072715;28;20032;-69
2022/08/18 13:15:31;;;;;;;5.15;2.40;;;29.70;90.50;;;;;;5071683;28;20027;-68
2022/08/18 13:17:57;;;;;;;4.20;2.60;;;29.60;90.90;;;;;;5072769;28;20028;-69
2022/08/18 13:20:23;;;;;;;3.78;2.03;;;29.40;90.80;;;;;;5061942;28;20414;-70
2022/08/18 13:22:49;;;;;;;8.95;2.90;;;29.20;91.10;;;;;;5072797;28;20089;-67